Toledo, Iowa
Current Conditions -  °F | °C
As of 10:53 AM on Saturday 25 Oct 2014 (Local Time) from KMIW Reporting Station
Clear Clear  
Wind Chill: 61°   Ceiling: Unl
Heat Index: 61°   Visibility: 10mi
Dew Point: 46°   Wind: 10mph
Humidity: 58%   Direction: 350°N
Pressure: 30.09"   Gusts: NA
Location:  42°N, 92.58°W
Report Text: KMIW 251553Z AUTO 35009KT 10SM CLR 16/08 A3009 RMK AO2 SLP190 T01610078 $
Loading
Personal Weather Stations






























Interactive Weather Map New forecast layout! Learn more

10-Day Weather Forecast

Advertisements
Track Severe Weather on mobile